createdAt,value
2022-10-13T00:01:13.840Z,19.25
2022-10-13T00:03:42.112Z,21.42
2022-10-13T00:06:11.741Z,12.30
2022-10-13T00:08:42.586Z,15.85
2022-10-13T00:11:11.967Z,13.60
2022-10-13T00:13:40.614Z,20.75
2022-10-13T00:16:08.792Z,22.40
2022-10-13T00:18:38.974Z,15.80
2022-10-13T00:21:07.684Z,13.48
2022-10-13T00:23:37.353Z,19.40
2022-10-13T00:26:05.937Z,18.90
2022-10-13T00:28:34.130Z,23.90
2022-10-13T00:31:01.797Z,17.90
2022-10-13T00:33:29.639Z,23.98
2022-10-13T00:35:57.122Z,16.05
2022-10-13T00:38:24.618Z,14.23
2022-10-13T00:40:54.184Z,24.27
2022-10-13T00:43:26.610Z,17.20
2022-10-13T00:45:54.849Z,13.27
2022-10-13T00:48:24.726Z,16.88
2022-10-13T00:50:52.947Z,14.60
2022-10-13T00:53:23.098Z,18.73
2022-10-13T00:55:52.189Z,17.33
2022-10-13T00:58:23.261Z,13.43
2022-10-13T01:00:52.243Z,15.30
2022-10-13T01:03:20.531Z,24.52
2022-10-13T01:05:49.525Z,11.45
2022-10-13T01:08:17.861Z,13.52
2022-10-13T01:10:51.615Z,14.00
2022-10-13T01:13:22.735Z,11.18
2022-10-13T01:15:55.876Z,19.85
2022-10-13T01:18:26.930Z,11.20
2022-10-13T01:21:00.755Z,19.52
2022-10-13T01:23:46.727Z,18.10
2022-10-13T01:26:25.002Z,15.00
2022-10-13T01:29:10.960Z,14.68
2022-10-13T01:31:42.911Z,16.88
2022-10-13T01:34:12.278Z,16.25
2022-10-13T01:36:44.559Z,19.80
2022-10-13T01:39:16.693Z,17.58
2022-10-13T01:41:47.883Z,17.23
2022-10-13T01:44:16.494Z,17.63
2022-10-13T01:46:46.951Z,22.58
2022-10-13T01:49:16.503Z,17.50
2022-10-13T01:51:45.339Z,19.83
2022-10-13T01:54:12.989Z,21.92
2022-10-13T01:56:40.573Z,20.42
2022-10-13T01:59:10.309Z,22.55
2022-10-13T02:01:46.389Z,22.52
2022-10-13T02:04:21.985Z,23.13
2022-10-13T02:06:53.523Z,24.88
2022-10-13T02:09:23.844Z,21.48
2022-10-13T02:11:55.143Z,19.77
2022-10-13T02:14:26.431Z,20.25
2022-10-13T02:16:55.630Z,19.70
2022-10-13T02:19:25.414Z,21.08
2022-10-13T02:21:54.073Z,19.20
2022-10-13T02:24:21.617Z,15.00
2022-10-13T02:26:49.284Z,20.45
2022-10-13T02:29:18.243Z,16.98
2022-10-13T02:31:46.697Z,17.88
2022-10-13T02:34:15.230Z,16.05
2022-10-13T02:36:44.099Z,20.70
2022-10-13T02:39:12.027Z,14.45
2022-10-13T02:41:39.694Z,17.23
2022-10-13T02:44:07.424Z,22.63
2022-10-13T02:46:35.608Z,16.65
2022-10-13T02:49:03.285Z,19.25
2022-10-13T02:51:39.851Z,24.52
2022-10-13T02:54:09.682Z,27.00
2022-10-13T02:56:37.195Z,21.95
2022-10-13T02:59:06.863Z,19.30
2022-10-13T03:01:41.431Z,15.10
2022-10-13T03:04:12.427Z,19.92
2022-10-13T03:06:40.573Z,23.02
2022-10-13T03:09:09.518Z,27.85
2022-10-13T03:11:37.584Z,21.92
2022-10-13T03:14:10.174Z,20.02
2022-10-13T03:16:40.140Z,18.27
2022-10-13T03:19:11.723Z,16.33
2022-10-13T03:21:40.155Z,18.00
2022-10-13T03:24:09.832Z,32.35
2022-10-13T03:26:37.442Z,27.60
2022-10-13T03:29:16.076Z,18.55
2022-10-13T03:31:48.886Z,26.45
2022-10-13T03:34:22.831Z,15.77
2022-10-13T03:36:50.362Z,45.10
2022-10-13T03:39:19.242Z,23.45
2022-10-13T03:41:48.899Z,24.73
2022-10-13T03:44:18.582Z,15.63
2022-10-13T03:46:58.998Z,15.13
2022-10-13T03:49:26.556Z,28.65
2022-10-13T03:51:56.362Z,15.93
2022-10-13T03:54:28.557Z,15.98
2022-10-13T03:56:56.150Z,19.92
2022-10-13T03:59:29.246Z,22.58
2022-10-13T04:01:59.261Z,15.32
2022-10-13T04:04:28.435Z,15.73
2022-10-13T04:06:56.079Z,20.50
2022-10-13T04:09:24.991Z,14.73
2022-10-13T04:11:52.524Z,15.85
2022-10-13T04:14:20.544Z,20.45
2022-10-13T04:16:53.978Z,15.88
2022-10-13T04:19:21.464Z,20.90
2022-10-13T04:21:56.352Z,17.27
2022-10-13T04:24:25.171Z,17.80
2022-10-13T04:26:54.272Z,18.55
2022-10-13T04:29:27.153Z,13.20
2022-10-13T04:31:54.687Z,18.38
2022-10-13T04:34:22.328Z,23.50
2022-10-13T04:36:59.038Z,19.85
2022-10-13T04:39:27.911Z,24.92
2022-10-13T04:41:55.884Z,22.63
2022-10-13T04:44:24.967Z,30.83
2022-10-13T04:46:56.787Z,23.33
2022-10-13T04:49:25.080Z,25.95
2022-10-13T04:51:58.069Z,27.67
2022-10-13T04:54:27.570Z,22.58
2022-10-13T04:57:03.085Z,26.55
2022-10-13T04:59:33.875Z,27.05
2022-10-13T05:02:03.494Z,25.60
2022-10-13T05:04:31.164Z,24.33
2022-10-13T05:07:16.974Z,18.70
2022-10-13T05:09:48.833Z,28.25
2022-10-13T05:12:17.866Z,17.25
2022-10-13T05:14:45.952Z,20.05
2022-10-13T05:17:13.811Z,19.48
2022-10-13T05:19:41.298Z,13.95
2022-10-13T05:22:08.799Z,23.60
2022-10-13T05:24:49.728Z,20.08
2022-10-13T05:27:23.858Z,14.95
2022-10-13T05:29:51.487Z,12.90
2022-10-13T05:32:19.267Z,28.10
2022-10-13T05:34:53.346Z,15.77
2022-10-13T05:37:22.624Z,22.73
2022-10-13T05:39:50.467Z,18.67
2022-10-13T05:42:20.167Z,15.40
2022-10-13T05:44:54.494Z,22.95
2022-10-13T05:47:28.087Z,14.48
2022-10-13T05:50:22.959Z,20.35
2022-10-13T05:59:58.741Z,28.02
2022-10-13T06:05:51.279Z,19.02
2022-10-13T06:08:23.889Z,20.67
2022-10-13T06:10:51.431Z,28.38
2022-10-13T06:13:20.205Z,17.77
2022-10-13T06:15:51.731Z,18.13
2022-10-13T06:18:26.795Z,22.83
2022-10-13T06:20:58.891Z,13.23
2022-10-13T06:23:28.058Z,12.32
2022-10-13T06:25:55.846Z,18.85
2022-10-13T06:28:23.472Z,11.60
2022-10-13T06:30:57.249Z,21.17
2022-10-13T06:33:30.854Z,20.92
2022-10-13T06:36:01.875Z,15.15
2022-10-13T06:38:35.088Z,16.75
2022-10-13T06:41:05.138Z,19.85
2022-10-13T06:43:40.209Z,12.52
2022-10-13T06:46:10.522Z,16.23
2022-10-13T06:48:38.137Z,17.83
2022-10-13T06:51:07.354Z,14.45
2022-10-13T06:53:41.670Z,21.73
2022-10-13T07:18:32.203Z,25.23
2022-10-13T07:21:16.316Z,26.92
2022-10-13T07:23:46.505Z,24.50
2022-10-13T07:26:33.430Z,27.33
2022-10-13T07:29:07.579Z,24.95
2022-10-13T07:31:38.592Z,41.70
2022-10-13T07:34:49.130Z,20.60
2022-10-13T07:37:19.333Z,30.85
2022-10-13T07:39:47.207Z,29.67
2022-10-13T07:42:17.175Z,23.88
2022-10-13T07:44:47.948Z,26.20
2022-10-13T07:47:17.841Z,36.20
2022-10-13T07:49:57.128Z,32.20
2022-10-13T07:52:44.240Z,22.83
2022-10-13T07:58:04.579Z,35.65
2022-10-13T08:00:34.226Z,42.28
2022-10-13T08:03:04.089Z,30.20
2022-10-13T08:05:34.181Z,27.70
2022-10-13T08:08:07.281Z,27.52
2022-10-13T08:10:37.254Z,28.67
2022-10-13T08:13:09.021Z,28.45
2022-10-13T08:30:57.133Z,31.95
2022-10-13T08:33:27.390Z,29.08
2022-10-13T08:35:59.198Z,24.48
2022-10-13T08:38:27.666Z,30.27
2022-10-13T08:40:55.295Z,26.65
2022-10-13T08:43:25.703Z,24.23
2022-10-13T08:45:58.869Z,19.38
2022-10-13T08:48:30.870Z,15.82
2022-10-13T08:51:00.603Z,15.98
2022-10-13T09:03:03.754Z,27.98
2022-10-13T09:05:40.034Z,20.27
2022-10-13T09:11:43.468Z,24.10
2022-10-13T09:14:25.177Z,22.30
2022-10-13T09:17:31.918Z,17.40
2022-10-13T09:20:06.078Z,13.40
2022-10-13T09:23:08.680Z,25.83
2022-10-13T09:25:59.688Z,18.23
2022-10-13T09:28:34.775Z,20.73
2022-10-13T09:31:42.777Z,17.33
2022-10-13T09:34:32.997Z,20.77
2022-10-13T09:37:29.015Z,16.75
2022-10-13T09:40:35.210Z,17.67
2022-10-13T09:43:08.097Z,16.52
2022-10-13T09:45:37.818Z,21.48
2022-10-13T09:48:18.982Z,19.85
2022-10-13T09:51:00.863Z,16.15
2022-10-13T09:53:33.924Z,23.73
2022-10-13T09:56:10.225Z,15.60
2022-10-13T09:58:56.363Z,25.52
2022-10-13T10:01:30.821Z,18.40
2022-10-13T10:03:59.801Z,18.58
2022-10-13T10:06:37.967Z,21.88
2022-10-13T10:09:12.382Z,20.23
2022-10-13T10:11:45.843Z,22.58
2022-10-13T10:14:19.987Z,14.00
2022-10-13T10:19:57.307Z,26.10
2022-10-13T10:31:06.054Z,13.82
2022-10-13T10:33:46.596Z,16.05
2022-10-13T10:36:19.303Z,14.85
2022-10-13T10:38:51.625Z,12.15
2022-10-13T10:41:26.267Z,15.65
2022-10-13T10:43:57.504Z,15.80
2022-10-13T10:46:26.939Z,15.68
2022-10-13T10:49:02.832Z,15.13
2022-10-13T10:51:32.925Z,14.13
2022-10-13T10:54:11.995Z,16.27
2022-10-13T10:56:54.283Z,12.80
2022-10-13T11:03:19.172Z,12.32
2022-10-13T11:06:36.719Z,15.65
2022-10-13T11:09:06.507Z,15.27
2022-10-13T11:11:38.888Z,14.70
2022-10-13T11:14:47.496Z,12.40
2022-10-13T11:17:20.508Z,12.52
2022-10-13T11:30:16.366Z,18.30
2022-10-13T11:32:57.087Z,16.80
2022-10-13T11:35:26.767Z,13.32
2022-10-13T11:38:13.940Z,15.27
2022-10-13T11:40:50.518Z,17.85
2022-10-13T11:43:37.970Z,15.40
2022-10-13T11:46:20.345Z,17.90
2022-10-13T11:49:06.035Z,18.75
2022-10-13T11:51:36.375Z,19.13
2022-10-13T11:54:10.025Z,13.10
2022-10-13T11:56:48.712Z,21.58
2022-10-13T11:59:26.421Z,20.05
2022-10-13T12:01:54.367Z,17.35
2022-10-13T12:04:23.749Z,23.45
2022-10-13T12:06:55.496Z,19.05
2022-10-13T12:09:23.052Z,20.20
2022-10-13T12:11:57.482Z,18.30
2022-10-13T12:14:28.797Z,18.63
2022-10-13T12:19:44.076Z,19.60
2022-10-13T12:22:13.642Z,16.25
2022-10-13T12:24:42.322Z,12.10
2022-10-13T12:27:20.823Z,10.27
2022-10-13T12:29:49.070Z,14.73
2022-10-13T12:32:20.804Z,16.15
2022-10-13T12:34:48.263Z,7.50
2022-10-13T12:37:22.560Z,13.32
2022-10-13T12:39:50.502Z,8.10
2022-10-13T12:42:18.757Z,10.20
2022-10-13T12:44:46.670Z,11.15
2022-10-13T12:47:29.030Z,13.85
2022-10-13T12:50:11.570Z,4.78
2022-10-13T12:52:41.462Z,12.57
2022-10-13T12:55:14.725Z,16.58
2022-10-13T12:57:42.517Z,14.50
2022-10-13T13:00:22.923Z,12.35
2022-10-13T13:02:52.522Z,12.90
2022-10-13T13:05:34.900Z,8.20
2022-10-13T13:08:05.123Z,10.50
2022-10-13T13:10:35.085Z,10.43
2022-10-13T13:13:15.886Z,8.73
2022-10-13T13:15:43.504Z,6.82
2022-10-13T13:18:24.828Z,12.00
2022-10-13T13:20:52.918Z,7.22
2022-10-13T13:23:23.350Z,10.43
2022-10-13T13:26:00.766Z,8.95
2022-10-13T13:28:30.902Z,11.05
2022-10-13T13:30:58.505Z,12.40
2022-10-13T13:33:26.328Z,10.82
2022-10-13T13:35:54.242Z,15.25
2022-10-13T13:38:23.128Z,7.60
2022-10-13T13:40:51.786Z,12.73
2022-10-13T13:43:28.950Z,8.70
2022-10-13T13:45:56.593Z,16.55
2022-10-13T13:48:24.260Z,8.68
2022-10-13T13:50:51.867Z,12.63
2022-10-13T13:53:19.505Z,10.88
2022-10-13T13:55:48.498Z,7.47
2022-10-13T13:58:22.884Z,7.97
2022-10-13T14:00:50.405Z,9.68
2022-10-13T14:03:19.531Z,11.35
2022-10-13T14:05:47.200Z,8.32
2022-10-13T14:08:14.750Z,7.53
2022-10-13T14:10:42.304Z,6.38
2022-10-13T14:13:11.500Z,4.72
2022-10-13T14:15:39.019Z,8.05
2022-10-13T14:18:06.557Z,10.23
2022-10-13T14:20:34.075Z,18.75
2022-10-13T14:23:01.705Z,14.27
2022-10-13T14:25:29.198Z,9.63
2022-10-13T14:27:56.703Z,10.70
2022-10-13T14:30:25.546Z,9.43
2022-10-13T14:32:53.076Z,9.73
2022-10-13T14:35:20.574Z,11.18
2022-10-13T14:37:48.078Z,12.50
2022-10-13T14:40:16.431Z,12.55
2022-10-13T14:42:44.006Z,8.23
2022-10-13T14:45:13.142Z,15.90
2022-10-13T14:47:43.781Z,16.13
2022-10-13T14:50:13.484Z,6.68
2022-10-13T14:52:40.930Z,15.52
2022-10-13T14:55:08.875Z,9.55
2022-10-13T14:57:36.445Z,7.65
2022-10-13T15:00:04.722Z,16.95
2022-10-13T15:03:04.290Z,16.33
2022-10-13T15:11:27.354Z,9.95
2022-10-13T15:13:57.489Z,17.65
2022-10-13T15:16:26.249Z,7.28
2022-10-13T15:19:50.811Z,14.70
2022-10-13T15:26:01.096Z,11.30
2022-10-13T15:33:12.098Z,13.85
2022-10-13T15:39:28.320Z,6.35
2022-10-13T15:41:55.779Z,10.57
2022-10-13T15:44:25.446Z,10.40
2022-10-13T15:47:17.062Z,16.83
2022-10-13T15:49:45.276Z,15.90
2022-10-13T15:52:14.089Z,19.00
2022-10-13T15:54:41.562Z,16.45
2022-10-13T15:57:09.077Z,15.50
2022-10-13T15:59:37.111Z,13.48
2022-10-13T16:02:07.761Z,13.35
2022-10-13T16:04:37.662Z,10.10
2022-10-13T16:07:08.590Z,8.10
2022-10-13T16:09:39.174Z,14.82
2022-10-13T16:12:06.818Z,18.70
2022-10-13T16:14:34.424Z,24.27
2022-10-13T16:17:02.048Z,17.63
2022-10-13T16:19:32.294Z,16.20
2022-10-13T16:21:59.771Z,18.27
2022-10-13T16:24:27.344Z,11.63
2022-10-13T16:26:54.884Z,14.10
2022-10-13T16:29:25.410Z,11.57
2022-10-13T16:31:52.924Z,19.40
2022-10-13T16:34:20.654Z,16.17
2022-10-13T16:36:49.617Z,18.50
2022-10-13T16:39:17.231Z,10.30
2022-10-13T16:41:46.884Z,20.17
2022-10-13T16:44:24.535Z,29.20
2022-10-13T16:46:56.848Z,27.65
2022-10-13T16:49:24.451Z,17.98
2022-10-13T16:51:53.267Z,29.10
2022-10-13T16:54:20.821Z,33.70
2022-10-13T16:56:48.372Z,30.67
2022-10-13T16:59:15.847Z,38.53
2022-10-13T17:01:44.557Z,44.70
2022-10-13T17:04:12.292Z,36.72
2022-10-13T17:06:41.149Z,36.72
2022-10-13T17:09:11.191Z,42.22
2022-10-13T17:11:38.790Z,50.17
2022-10-13T17:14:08.688Z,33.15
2022-10-13T17:16:36.327Z,32.22
2022-10-13T17:19:04.707Z,35.42
2022-10-13T17:21:32.332Z,35.28
2022-10-13T17:24:00.221Z,30.38
2022-10-13T17:26:29.331Z,39.20
2022-10-13T17:28:57.001Z,34.25
2022-10-13T17:31:24.999Z,37.50
2022-10-13T17:33:53.025Z,34.80
2022-10-13T17:36:21.469Z,26.95
2022-10-13T17:38:50.067Z,25.23
2022-10-13T17:41:18.174Z,35.35
2022-10-13T17:43:47.030Z,44.85
2022-10-13T17:46:37.020Z,36.15
2022-10-13T17:49:06.284Z,39.10
2022-10-13T17:51:36.975Z,36.70
2022-10-13T17:54:11.475Z,32.40
2022-10-13T17:56:42.131Z,38.92
2022-10-13T17:59:11.031Z,31.83
2022-10-13T18:01:39.237Z,37.13
2022-10-13T18:04:08.532Z,36.53
2022-10-13T18:06:39.951Z,39.20
2022-10-13T18:09:10.864Z,45.78
2022-10-13T18:11:38.884Z,38.75
2022-10-13T18:14:08.565Z,37.33
2022-10-13T18:16:37.628Z,40.47
2022-10-13T18:19:06.112Z,47.47
2022-10-13T18:21:33.718Z,51.50
2022-10-13T18:24:02.172Z,36.90
2022-10-13T18:26:32.825Z,37.80
2022-10-13T18:29:00.598Z,37.47
2022-10-13T18:31:29.267Z,35.15
2022-10-13T18:33:58.827Z,53.28
2022-10-13T18:36:28.555Z,38.28
2022-10-13T18:38:56.797Z,43.00
2022-10-13T18:41:25.317Z,40.75
2022-10-13T18:43:52.821Z,49.60
2022-10-13T18:46:20.324Z,43.50
2022-10-13T18:49:16.505Z,32.15
2022-10-13T18:51:43.760Z,42.03
2022-10-13T18:54:11.574Z,38.92
2022-10-13T18:56:39.464Z,42.92
2022-10-13T18:59:07.841Z,44.17
2022-10-13T19:01:36.178Z,31.73
2022-10-13T19:04:04.302Z,30.63
2022-10-13T19:06:32.697Z,30.85
2022-10-13T19:09:02.848Z,25.52
2022-10-13T19:11:34.120Z,29.67
2022-10-13T19:14:02.173Z,26.55
2022-10-13T19:16:34.453Z,24.67
2022-10-13T19:19:02.555Z,21.95
2022-10-13T19:21:38.880Z,23.52
2022-10-13T19:24:08.548Z,19.73
2022-10-13T19:26:36.905Z,19.30
2022-10-13T19:29:06.198Z,29.40
2022-10-13T19:31:41.001Z,29.52
2022-10-13T19:34:08.917Z,30.77
2022-10-13T19:36:38.884Z,31.60
2022-10-13T19:39:11.857Z,32.03
2022-10-13T19:41:44.354Z,23.05
2022-10-13T19:44:12.438Z,29.08
2022-10-13T19:46:40.446Z,30.52
2022-10-13T19:49:08.021Z,29.20
2022-10-13T19:51:38.071Z,35.78
2022-10-13T19:54:06.151Z,38.42
2022-10-13T19:56:35.368Z,42.20
2022-10-13T19:59:14.292Z,38.70
2022-10-13T20:01:41.827Z,34.50
2022-10-13T20:04:42.011Z,39.47
2022-10-13T20:07:13.435Z,31.60
2022-10-13T20:09:41.781Z,40.03
2022-10-13T20:12:10.716Z,39.85
2022-10-13T20:14:38.437Z,41.10
2022-10-13T20:17:26.394Z,36.08
2022-10-13T20:19:54.098Z,59.97
2022-10-13T20:22:21.706Z,52.63
2022-10-13T20:24:49.273Z,50.90
2022-10-13T20:27:19.559Z,55.78
2022-10-13T20:29:47.381Z,48.13
2022-10-13T20:32:15.795Z,48.22
2022-10-13T20:34:46.474Z,52.05
2022-10-13T20:37:14.203Z,54.35
2022-10-13T20:39:42.460Z,43.78
2022-10-13T20:42:10.180Z,40.25
2022-10-13T20:44:39.644Z,44.85
2022-10-13T20:47:07.621Z,43.53
2022-10-13T20:49:35.506Z,42.45
2022-10-13T20:52:03.288Z,35.67
2022-10-13T20:54:30.908Z,37.15
2022-10-13T21:00:18.295Z,51.42
2022-10-13T21:02:47.653Z,44.72
2022-10-13T21:05:15.289Z,43.53
2022-10-13T21:07:43.567Z,37.95
2022-10-13T21:10:13.512Z,41.60
2022-10-13T21:12:41.627Z,41.92
2022-10-13T21:15:09.783Z,39.95
2022-10-13T21:17:42.351Z,39.10
2022-10-13T21:23:16.494Z,41.05
2022-10-13T21:25:44.022Z,39.97
2022-10-13T21:28:13.170Z,41.20
2022-10-13T21:30:41.086Z,51.13
2022-10-13T21:33:10.180Z,39.80
2022-10-13T21:35:37.720Z,43.03
2022-10-13T21:38:05.504Z,34.70
2022-10-13T21:40:33.005Z,40.88
2022-10-13T21:43:00.503Z,39.33
2022-10-13T21:45:27.991Z,43.40
2022-10-13T21:47:55.470Z,49.80
2022-10-13T21:50:24.639Z,38.78
2022-10-13T21:52:52.190Z,43.15
2022-10-13T21:55:19.672Z,31.85
2022-10-13T21:57:47.206Z,39.53
2022-10-13T22:00:15.692Z,40.50
2022-10-13T22:02:43.248Z,39.22
2022-10-13T22:05:10.891Z,35.25
2022-10-13T22:07:39.984Z,43.92
2022-10-13T22:10:07.977Z,39.88
2022-10-13T22:12:38.179Z,39.42
2022-10-13T22:15:06.192Z,34.60
2022-10-13T22:17:34.048Z,40.55
2022-10-13T22:20:01.572Z,38.80
2022-10-13T22:22:31.100Z,37.65
2022-10-13T22:25:00.113Z,50.03
2022-10-13T22:27:27.639Z,40.28
2022-10-13T22:29:55.281Z,46.60
2022-10-13T22:32:22.788Z,61.13
2022-10-13T22:34:50.320Z,42.80
2022-10-13T22:37:17.922Z,53.72
2022-10-13T22:39:45.509Z,55.38
2022-10-13T22:42:14.376Z,51.03
2022-10-13T22:44:41.879Z,43.83
2022-10-13T22:47:09.368Z,48.78
2022-10-13T22:49:36.915Z,46.20
2022-10-13T22:52:04.649Z,44.00
2022-10-13T22:54:32.376Z,41.95
2022-10-13T22:57:00.255Z,41.70
2022-10-13T22:59:29.118Z,52.28
2022-10-13T23:01:56.766Z,42.30
2022-10-13T23:04:24.303Z,43.15
2022-10-13T23:06:53.184Z,43.17
2022-10-13T23:09:20.723Z,46.28
2022-10-13T23:11:48.249Z,42.83
2022-10-13T23:14:15.783Z,49.47
2022-10-13T23:16:44.669Z,46.28
2022-10-13T23:19:12.204Z,45.53
2022-10-13T23:21:39.706Z,52.20
2022-10-13T23:24:08.208Z,53.83
2022-10-13T23:26:35.770Z,56.90
2022-10-13T23:29:03.404Z,48.20
2022-10-13T23:31:30.881Z,41.67
2022-10-13T23:34:00.105Z,44.67
2022-10-13T23:36:28.769Z,46.13
2022-10-13T23:38:57.156Z,40.00
2022-10-13T23:41:26.139Z,50.53
2022-10-13T23:43:54.140Z,52.15
2022-10-13T23:46:21.936Z,46.72
2022-10-13T23:48:49.491Z,51.90
2022-10-13T23:51:19.507Z,51.10
2022-10-13T23:53:47.392Z,47.15
2022-10-13T23:56:15.048Z,45.03
2022-10-13T23:58:44.267Z,43.92
